Time;durP1;ratioP1;P1;durP2;ratioP2;P2;SDS_P1;SDS_P2;PMS_P1;PMS_P2;Temp;Humidity;BMP_temperature;BMP_pressure;BME280_temperature;BME280_humidity;BME280_pressure;Samples;Min_cycle;Max_cycle;Signal;HPM_P1;HPM_P2
2021/12/23 00:00:36;;;;;;;284.18;110.17;;;;;;;-8.71;83.52;98943.86;1758199;81;21010;-56
2021/12/23 00:03:05;;;;;;;226.02;90.75;;;;;;;-8.72;83.49;98925.09;1758122;80;20992;-57
2021/12/23 00:05:32;;;;;;;256.75;108.52;;;;;;;-8.72;83.24;98929.03;1758224;81;21428;-57
2021/12/23 00:07:59;;;;;;;133.50;57.80;;;;;;;-8.78;83.52;98924.34;1758597;80;21510;-57
2021/12/23 00:10:26;;;;;;;74.53;36.35;;;;;;;-8.76;83.47;98922.41;1757860;81;21031;-57
2021/12/23 00:12:53;;;;;;;170.47;66.50;;;;;;;-8.72;83.16;98919.35;1737608;80;21004;-57
2021/12/23 00:15:36;;;;;;;107.25;41.05;;;;;;;-8.73;83.07;98920.32;1739114;81;21037;-57
2021/12/23 00:18:16;;;;;;;54.13;26.52;;;;;;;-8.68;83.08;98921.24;1749844;80;21432;-56
2021/12/23 00:23:48;;;;;;;64.50;33.95;;;;;;;-8.70;82.89;98921.87;1764180;80;21343;-57
2021/12/23 00:25:32;;;;;;;62.40;30.62;;;;;;;-8.69;82.81;98909.08;1741345;80;21405;-57
2021/12/23 00:27:59;;;;;;;80.90;34.88;;;;;;;-8.69;82.90;98904.64;1772489;80;33353;-57
2021/12/23 00:30:27;;;;;;;231.97;90.45;;;;;;;-8.67;82.85;98905.82;1744595;82;20980;-58
2021/12/23 00:32:55;;;;;;;236.62;97.50;;;;;;;-8.76;82.74;98910.58;1747692;80;21019;-57
2021/12/23 00:35:23;;;;;;;265.23;101.75;;;;;;;-8.86;82.94;98896.95;1777922;79;21385;-57
2021/12/23 00:37:57;;;;;;;244.35;99.80;;;;;;;-8.92;82.83;98896.16;1736226;80;21041;-56
2021/12/23 00:40:19;;;;;;;;;;;;;;;-8.99;82.45;98895.03;1775692;80;20984;-57
2021/12/23 00:42:46;;;;;;;296.75;115.82;;;;;;;-9.08;82.26;98887.14;1750697;80;20164;-57
2021/12/23 00:45:13;;;;;;;269.85;117.00;;;;;;;-9.17;82.71;98883.52;1778756;79;21413;-57
2021/12/23 00:47:40;;;;;;;266.23;103.20;;;;;;;-9.20;83.12;98883.80;1732840;80;21247;-57
2021/12/23 00:50:08;;;;;;;282.37;110.92;;;;;;;-9.20;83.36;98879.86;1763989;80;21437;-57
2021/12/23 00:52:37;;;;;;;267.68;103.25;;;;;;;-9.20;83.44;98871.98;1714878;81;21515;-57
2021/12/23 00:55:05;;;;;;;;;;;;;;;-9.16;83.78;98878.13;1766882;80;20974;-58
2021/12/23 00:57:36;;;;;;;264.32;100.55;;;;;;;-9.21;83.64;98875.09;1764210;78;20172;-58
2021/12/23 01:00:00;;;;;;;;;;;;;;;-9.24;83.77;98868.78;1737296;82;21385;-57
2021/12/23 01:02:30;;;;;;;219.13;85.77;;;;;;;-9.24;83.35;98874.52;1735138;82;20555;-58
2021/12/23 01:04:56;;;;;;;;;;;;;;;-9.25;83.40;98872.85;1742388;82;21013;-58
2021/12/23 01:07:23;;;;;;;242.30;94.45;;;;;;;-9.25;83.87;98867.13;1740082;82;20202;-57
2021/12/23 01:09:50;;;;;;;244.47;98.80;;;;;;;-9.27;83.63;98870.85;1777840;79;21064;-58
2021/12/23 01:12:20;;;;;;;233.23;92.25;;;;;;;-9.28;83.58;98869.20;1776790;80;21585;-58
2021/12/23 01:15:13;;;;;;;;;;;;;;;-9.31;83.72;98868.13;1736894;82;21005;-58
2021/12/23 01:19:55;;;;;;;208.17;75.95;;;;;;;-9.38;83.67;98866.55;1764229;81;21051;-59
2021/12/23 01:22:22;;;;;;;205.72;72.90;;;;;;;-9.37;83.26;98861.64;1741500;80;21492;-59
2021/12/23 01:24:50;;;;;;;170.43;59.98;;;;;;;-9.47;83.17;98858.16;1746670;82;21320;-59
2021/12/23 01:27:17;;;;;;;177.47;69.50;;;;;;;-9.48;83.28;98856.02;1747693;81;20984;-59
2021/12/23 01:29:44;;;;;;;183.78;74.75;;;;;;;-9.50;83.99;98856.61;1747332;80;20962;-58
2021/12/23 01:32:11;;;;;;;174.57;68.17;;;;;;;-9.39;84.91;98859.16;1747528;81;20979;-58
2021/12/23 01:34:38;;;;;;;180.82;75.35;;;;;;;-9.25;85.18;98859.73;1747217;81;21000;-58
2021/12/23 01:37:05;;;;;;;200.03;80.70;;;;;;;-9.16;85.27;98855.81;1741401;82;21679;-59
2021/12/23 01:39:32;;;;;;;207.00;83.42;;;;;;;-9.11;84.68;98852.80;1763822;80;21461;-57
2021/12/23 01:41:59;;;;;;;197.90;82.47;;;;;;;-9.12;84.58;98849.34;1764155;80;21612;-58
2021/12/23 01:44:27;;;;;;;157.22;66.77;;;;;;;-9.11;84.48;98839.66;1775086;79;20980;-59
2021/12/23 01:46:54;;;;;;;194.70;74.77;;;;;;;-9.07;84.59;98833.16;1776278;80;20950;-58
2021/12/23 01:49:21;;;;;;;155.72;61.60;;;;;;;-9.06;84.42;98832.67;1712053;82;21391;-58
2021/12/23 01:51:48;;;;;;;72.40;33.10;;;;;;;-9.11;84.05;98830.47;1734915;81;21051;-59
2021/12/23 01:54:15;;;;;;;143.07;57.45;;;;;;;-9.08;84.04;98830.67;1746782;81;21068;-58
2021/12/23 01:56:42;;;;;;;160.43;64.12;;;;;;;-9.05;83.69;98827.31;1747576;81;21036;-58
2021/12/23 01:59:09;;;;;;;152.30;61.08;;;;;;;-9.08;83.69;98825.42;1747426;81;21020;-58
2021/12/23 02:01:41;;;;;;;134.10;49.03;;;;;;;-9.10;83.46;98826.87;1742634;81;22054;-58
2021/12/23 02:04:04;;;;;;;;;;;;;;;-9.15;83.70;98825.95;1746012;82;21003;-58
2021/12/23 02:06:31;;;;;;;160.93;61.37;;;;;;;-9.10;83.91;98815.89;1776808;80;20327;-58
2021/12/23 02:08:58;;;;;;;166.47;66.57;;;;;;;-9.08;84.00;98810.98;1777187;80;20997;-58
2021/12/23 02:11:25;;;;;;;149.97;62.23;;;;;;;-9.12;83.44;98811.75;1771247;80;21048;-59
2021/12/23 02:13:51;;;;;;;149.95;54.80;;;;;;;-9.21;82.88;98800.75;1764097;80;21056;-58
2021/12/23 02:16:18;;;;;;;142.03;58.50;;;;;;;-9.35;82.62;98799.33;1764206;81;21462;-58
2021/12/23 02:18:45;;;;;;;137.35;53.92;;;;;;;-9.44;82.66;98798.83;1772214;80;21401;-58
2021/12/23 02:21:13;;;;;;;141.82;54.33;;;;;;;-9.61;82.49;98798.98;1763931;80;21059;-58
2021/12/23 02:23:40;;;;;;;172.28;63.83;;;;;;;-9.71;82.73;98798.13;1764172;80;21528;-58
2021/12/23 02:26:07;;;;;;;177.60;70.83;;;;;;;-9.78;82.85;98793.89;1764044;80;21422;-59
2021/12/23 02:28:34;;;;;;;157.88;69.05;;;;;;;-9.80;83.95;98787.95;1764893;80;21024;-58
2021/12/23 02:31:01;;;;;;;174.80;66.35;;;;;;;-9.82;84.08;98785.95;1765524;81;21041;-59
2021/12/23 02:33:28;;;;;;;143.13;54.60;;;;;;;-9.83;83.93;98789.50;1769096;80;21312;-58
2021/12/23 02:35:56;;;;;;;157.52;60.75;;;;;;;-9.84;83.58;98789.16;1742127;82;21067;-57
2021/12/23 02:38:23;;;;;;;126.18;53.20;;;;;;;-9.95;83.50;98780.08;1754770;80;21415;-58
2021/12/23 02:40:50;;;;;;;121.00;49.55;;;;;;;-9.96;83.44;98782.36;1756508;81;20976;-58
2021/12/23 02:43:24;;;;;;;136.25;52.70;;;;;;;-10.00;83.63;98777.01;1753120;80;20977;-58
2021/12/23 02:45:55;;;;;;;142.15;55.40;;;;;;;-10.08;83.94;98772.45;1763897;81;21037;-57
2021/12/23 02:48:26;;;;;;;148.25;57.27;;;;;;;-10.07;84.14;98768.03;1763702;80;20970;-57
2021/12/23 02:50:54;;;;;;;158.87;57.33;;;;;;;-10.12;84.16;98763.66;1763895;81;21022;-57
2021/12/23 02:53:22;;;;;;;93.42;41.90;;;;;;;-10.10;83.91;98765.17;1770911;80;21008;-57
2021/12/23 02:55:49;;;;;;;120.62;45.33;;;;;;;-10.07;83.55;98761.48;1742366;82;20994;-57
2021/12/23 02:58:16;;;;;;;144.68;52.05;;;;;;;-10.16;83.18;98761.78;1745113;82;21000;-57
2021/12/23 03:00:44;;;;;;;155.75;60.88;;;;;;;-10.24;83.14;98755.09;1764586;81;21417;-57
2021/12/23 03:03:11;;;;;;;152.85;56.25;;;;;;;-10.31;84.23;98757.88;1748331;81;22102;-57
2021/12/23 03:05:38;;;;;;;141.90;53.65;;;;;;;-10.31;83.63;98756.08;1756218;81;20963;-57
2021/12/23 03:08:05;;;;;;;141.92;55.65;;;;;;;-10.34;83.43;98754.19;1758394;81;21043;-57
2021/12/23 03:10:32;;;;;;;143.07;54.98;;;;;;;-10.42;83.17;98754.03;1758202;81;20953;-56
2021/12/23 03:12:59;;;;;;;139.57;52.38;;;;;;;-10.53;83.10;98753.59;1752633;80;21273;-56
2021/12/23 03:15:26;;;;;;;141.12;57.53;;;;;;;-10.58;83.14;98755.80;1753168;80;22107;-57
2021/12/23 03:17:53;;;;;;;143.15;57.20;;;;;;;-10.61;83.23;98749.00;1781452;80;21445;-57
2021/12/23 03:20:20;;;;;;;132.47;49.77;;;;;;;-10.57;83.49;98753.04;1773967;80;21484;-57
2021/12/23 03:22:46;;;;;;;130.35;49.80;;;;;;;-10.59;83.76;98743.17;1744762;82;21409;-57
2021/12/23 03:25:13;;;;;;;129.45;55.48;;;;;;;-10.61;83.32;98744.24;1744256;82;21003;-57
2021/12/23 03:27:40;;;;;;;128.42;49.42;;;;;;;-10.67;84.87;98744.30;1745603;80;21405;-56
2021/12/23 03:30:08;;;;;;;133.93;48.83;;;;;;;-10.63;84.33;98737.83;1763831;79;21060;-57
2021/12/23 03:32:35;;;;;;;134.57;52.00;;;;;;;-10.64;83.64;98732.72;1764233;80;21445;-57
2021/12/23 03:35:03;;;;;;;126.15;49.18;;;;;;;-10.66;83.63;98739.89;1766220;79;21259;-57
2021/12/23 03:37:29;;;;;;;127.50;45.70;;;;;;;-10.64;83.61;98726.17;1752981;81;21051;-56
2021/12/23 03:39:56;;;;;;;122.25;47.03;;;;;;;-10.62;83.43;98728.18;1763914;80;21402;-57
2021/12/23 03:42:23;;;;;;;125.75;46.10;;;;;;;-10.65;83.33;98722.73;1776903;80;21044;-57
2021/12/23 03:44:50;;;;;;;115.28;46.18;;;;;;;-10.67;83.37;98729.89;1740090;82;20996;-57
2021/12/23 03:47:17;;;;;;;97.85;38.00;;;;;;;-10.67;83.80;98721.20;1739508;82;21413;-57
2021/12/23 03:49:44;;;;;;;111.68;42.45;;;;;;;-10.65;83.89;98717.48;1746246;81;21090;-56
2021/12/23 03:52:11;;;;;;;87.35;31.85;;;;;;;-10.82;83.47;98711.04;1747519;82;21389;-57
2021/12/23 03:54:38;;;;;;;101.22;37.73;;;;;;;-10.84;83.21;98709.52;1747316;81;20996;-57
2021/12/23 03:57:05;;;;;;;131.67;46.42;;;;;;;-10.93;84.05;98712.42;1741171;81;20980;-57
2021/12/23 03:59:32;;;;;;;88.87;35.33;;;;;;;-10.95;84.44;98711.70;1746775;81;21003;-56
2021/12/23 04:01:59;;;;;;;110.50;42.85;;;;;;;-10.89;83.86;98710.37;1747578;82;20996;-56
2021/12/23 04:04:26;;;;;;;102.05;37.48;;;;;;;-10.97;83.50;98701.02;1741700;79;21214;-57
2021/12/23 04:06:53;;;;;;;109.07;45.20;;;;;;;-11.00;83.36;98696.88;1739379;82;20989;-57
2021/12/23 04:09:20;;;;;;;121.72;46.80;;;;;;;-11.04;83.18;98701.16;1774670;79;20957;-57
2021/12/23 04:11:47;;;;;;;126.25;46.28;;;;;;;-11.07;83.61;98700.12;1754971;80;21047;-57
2021/12/23 04:14:13;;;;;;;108.83;44.70;;;;;;;-11.07;83.60;98703.56;1740468;82;21066;-56
2021/12/23 04:16:40;;;;;;;120.08;46.15;;;;;;;-11.06;83.37;98705.22;1731257;82;22070;-57
2021/12/23 04:19:09;;;;;;;120.90;46.75;;;;;;;-11.07;83.14;98700.12;1742089;82;21386;-57
2021/12/23 04:21:36;;;;;;;;;;;;;;;-11.13;82.83;98697.52;1747232;81;20988;-56
2021/12/23 04:24:05;;;;;;;103.00;38.80;;;;;;;-11.19;83.07;98693.64;1745505;81;20152;-56
2021/12/23 04:26:32;;;;;;;86.00;35.20;;;;;;;-11.15;83.05;98688.48;1764381;80;21425;-57
2021/12/23 04:28:59;;;;;;;133.75;46.88;;;;;;;-11.18;82.99;98687.45;1764148;80;21384;-57
2021/12/23 04:31:26;;;;;;;116.93;48.30;;;;;;;-11.21;83.02;98686.85;1763950;80;21529;-57
2021/12/23 04:33:53;;;;;;;186.07;58.70;;;;;;;-11.25;83.38;98691.52;1764196;79;21029;-56
2021/12/23 04:36:20;;;;;;;177.23;61.23;;;;;;;-11.21;83.73;98683.75;1764305;80;21044;-57
2021/12/23 04:38:47;;;;;;;140.85;54.60;;;;;;;-11.21;84.37;98675.91;1771373;79;21055;-57
2021/12/23 04:41:14;;;;;;;133.97;53.50;;;;;;;-11.15;83.96;98679.81;1761967;80;22072;-57
2021/12/23 04:43:41;;;;;;;124.27;46.77;;;;;;;-11.22;83.24;98680.79;1744549;81;21508;-57
2021/12/23 04:46:09;;;;;;;138.80;50.63;;;;;;;-11.29;82.81;98672.26;1758052;80;20977;-56
2021/12/23 04:48:36;;;;;;;178.27;65.03;;;;;;;-11.34;82.89;98673.95;1740561;82;21411;-57
2021/12/23 04:51:03;;;;;;;198.40;68.67;;;;;;;-11.41;83.00;98667.56;1709230;82;21080;-57
2021/12/23 04:53:30;;;;;;;142.87;61.42;;;;;;;-11.41;83.08;98667.56;1721765;82;21403;-57
2021/12/23 04:55:57;;;;;;;110.40;45.88;;;;;;;-11.46;83.02;98669.71;1748002;81;21059;-56
2021/12/23 04:58:24;;;;;;;112.30;43.85;;;;;;;-11.43;82.94;98662.95;1754737;81;21506;-57
2021/12/23 05:00:51;;;;;;;122.67;46.05;;;;;;;-11.52;82.80;98661.08;1750061;81;20967;-56
2021/12/23 05:03:21;;;;;;;138.47;52.33;;;;;;;-11.62;82.92;98657.08;1750117;81;21036;-57
2021/12/23 05:05:48;;;;;;;131.78;52.70;;;;;;;-11.63;83.44;98645.41;1739453;81;21021;-57
2021/12/23 05:08:16;;;;;;;146.98;55.80;;;;;;;-11.62;83.35;98641.39;1765262;79;21088;-57
2021/12/23 05:10:43;;;;;;;118.80;52.00;;;;;;;-11.67;83.37;98643.53;1757846;79;20988;-56
2021/12/23 05:13:10;;;;;;;168.25;63.95;;;;;;;-11.66;83.46;98637.34;1742394;81;21007;-57
2021/12/23 05:15:37;;;;;;;178.65;69.27;;;;;;;-11.67;83.40;98627.84;1747162;80;21390;-56
2021/12/23 05:18:04;;;;;;;166.25;61.53;;;;;;;-11.61;83.52;98633.06;1747447;80;21381;-57
2021/12/23 05:20:31;;;;;;;120.13;44.42;;;;;;;-11.61;83.43;98627.35;1760484;79;21084;-57
2021/12/23 05:22:58;;;;;;;130.12;52.10;;;;;;;-11.57;83.20;98632.67;1733299;80;21448;-57
2021/12/23 05:25:25;;;;;;;72.20;32.20;;;;;;;-11.63;84.23;98627.94;1718297;82;21053;-57
2021/12/23 05:27:54;;;;;;;157.22;52.98;;;;;;;-11.53;83.78;98625.42;1710360;82;21068;-57
2021/12/23 05:30:22;;;;;;;131.65;47.20;;;;;;;-11.56;83.24;98629.58;1710997;81;21082;-57
2021/12/23 05:32:49;;;;;;;113.70;46.35;;;;;;;-11.60;82.98;98626.88;1738711;82;21072;-57
2021/12/23 05:35:17;;;;;;;114.85;47.65;;;;;;;-11.66;82.86;98621.66;1750896;81;21090;-57
2021/12/23 05:37:44;;;;;;;108.52;47.58;;;;;;;-11.71;83.62;98615.48;1753001;79;21024;-57
2021/12/23 05:40:14;;;;;;;138.15;57.78;;;;;;;-11.69;83.83;98615.38;1762094;79;21147;-57
2021/12/23 05:42:41;;;;;;;103.97;47.08;;;;;;;-11.66;83.75;98609.41;1760857;80;21029;-57
2021/12/23 05:45:09;;;;;;;96.17;39.13;;;;;;;-11.69;83.48;98608.36;1756919;80;21019;-57
2021/12/23 05:47:36;;;;;;;121.92;47.70;;;;;;;-11.72;83.33;98601.23;1686310;83;21481;-57
2021/12/23 05:50:04;;;;;;;169.87;69.32;;;;;;;-11.73;83.08;98595.65;1754404;80;21017;-57
2021/12/23 05:52:31;;;;;;;141.65;55.00;;;;;;;-11.78;83.20;98592.60;1719918;80;21823;-57
2021/12/23 05:54:58;;;;;;;150.05;65.28;;;;;;;-11.76;83.23;98595.44;1762380;79;21013;-57
2021/12/23 05:57:25;;;;;;;136.45;53.23;;;;;;;-11.77;82.98;98587.24;1757980;80;22142;-57
2021/12/23 05:59:51;;;;;;;89.25;41.00;;;;;;;-11.74;83.14;98588.77;1762802;80;21029;-58
2021/12/23 06:02:18;;;;;;;113.25;45.73;;;;;;;-11.79;83.26;98585.23;1770393;80;21074;-58
2021/12/23 06:04:45;;;;;;;140.45;53.15;;;;;;;-11.84;83.57;98591.81;1719872;82;21026;-58
2021/12/23 06:07:12;;;;;;;144.17;56.35;;;;;;;-11.82;83.23;98588.11;1738057;82;21013;-58
2021/12/23 06:09:39;;;;;;;131.03;50.43;;;;;;;-11.82;83.03;98588.11;1751972;80;21048;-57
2021/12/23 06:12:07;;;;;;;126.20;53.08;;;;;;;-11.86;82.93;98578.88;1760987;81;20987;-58
2021/12/23 06:14:34;;;;;;;155.05;58.80;;;;;;;-11.88;82.84;98577.31;1758134;80;21837;-58
2021/12/23 06:17:02;;;;;;;129.25;53.75;;;;;;;-11.92;83.19;98578.06;1753851;81;21046;-58
2021/12/23 06:19:29;;;;;;;113.83;44.13;;;;;;;-11.92;83.35;98572.00;1761455;80;21028;-58
2021/12/23 06:21:56;;;;;;;149.20;53.95;;;;;;;-11.93;82.86;98579.50;1762382;80;21080;-57
2021/12/23 06:24:22;;;;;;;166.45;63.05;;;;;;;-12.01;82.64;98570.97;1746468;79;21254;-57
2021/12/23 06:26:49;;;;;;;153.42;60.03;;;;;;;-12.05;83.21;98581.30;1716680;82;21520;-58
2021/12/23 06:29:16;;;;;;;143.52;56.42;;;;;;;-12.03;83.20;98571.09;1750155;79;21049;-58
2021/12/23 06:31:43;;;;;;;141.03;51.90;;;;;;;-12.03;83.44;98557.20;1709491;82;21103;-57
2021/12/23 06:34:10;;;;;;;124.87;44.05;;;;;;;-12.01;83.20;98551.36;1753851;80;21013;-57
2021/12/23 06:36:37;;;;;;;154.42;58.65;;;;;;;-11.96;83.28;98555.75;1700007;82;20993;-58
2021/12/23 06:39:05;;;;;;;114.42;49.77;;;;;;;-11.92;83.08;98553.23;1755221;79;20981;-57
2021/12/23 06:41:31;;;;;;;150.42;55.35;;;;;;;-11.89;83.09;98551.66;1762402;80;20987;-58
2021/12/23 06:43:58;;;;;;;151.25;58.75;;;;;;;-11.88;83.48;98549.88;1770004;80;21181;-57
2021/12/23 06:46:25;;;;;;;236.35;84.83;;;;;;;-11.88;83.70;98541.55;1767605;80;21060;-57
2021/12/23 06:48:52;;;;;;;180.45;67.40;;;;;;;-11.91;83.24;98543.13;1764996;80;22810;-57
2021/12/23 06:51:19;;;;;;;183.87;67.30;;;;;;;-11.89;82.49;98544.30;1755492;80;21028;-58
2021/12/23 06:53:46;;;;;;;177.15;60.70;;;;;;;-11.96;82.30;98543.52;1780815;80;21082;-57
2021/12/23 06:56:16;;;;;;;177.12;66.82;;;;;;;-11.92;82.43;98545.86;1754291;80;21383;-57
2021/12/23 06:58:41;;;;;;;;;;;;;;;-11.94;82.40;98544.69;1724347;82;20983;-58
2021/12/23 07:01:08;;;;;;;210.90;73.35;;;;;;;-11.92;82.63;98542.77;1745892;81;20177;-57
2021/12/23 07:03:58;;;;;;;170.50;66.42;;;;;;;-11.89;82.81;98542.51;1754766;80;21110;-58
2021/12/23 07:06:06;;;;;;;;;;;;;;;-11.88;83.12;98538.11;1733052;81;21043;-58
2021/12/23 07:08:34;;;;;;;;;;;;;;;-11.84;82.61;98540.36;1738385;81;21789;-58
2021/12/23 07:11:01;;;;;;;;;;;;;;;-11.82;83.06;98533.69;1730471;81;20228;-57
2021/12/23 07:13:28;;;;;;;143.37;64.95;;;;;;;-11.74;83.67;98535.17;1761362;81;20196;-56
2021/12/23 07:15:56;;;;;;;305.67;114.22;;;;;;;-11.66;83.97;98536.19;1756321;80;21013;-57
2021/12/23 07:18:23;;;;;;;179.55;69.72;;;;;;;-11.57;83.88;98530.67;1773067;79;21061;-56
2021/12/23 07:20:49;;;;;;;175.38;74.05;;;;;;;-11.55;82.90;98536.59;1729899;80;21574;-58
2021/12/23 07:23:16;;;;;;;188.52;84.28;;;;;;;-11.60;82.39;98528.80;1768894;79;21711;-58
2021/12/23 07:25:43;;;;;;;189.85;71.75;;;;;;;-11.57;82.14;98523.30;1736324;82;21035;-58
2021/12/23 07:28:10;;;;;;;149.18;66.95;;;;;;;-11.52;82.33;98523.28;1730386;82;21060;-57
2021/12/23 07:30:37;;;;;;;623.25;226.52;;;;;;;-11.55;82.42;98519.59;1728580;81;21011;-58
2021/12/23 07:33:04;;;;;;;271.25;120.42;;;;;;;-11.54;82.42;98512.09;1729495;81;21450;-58
2021/12/23 07:35:31;;;;;;;151.15;63.92;;;;;;;-11.50;82.22;98508.28;1748747;79;21048;-57
2021/12/23 07:38:00;;;;;;;144.93;54.60;;;;;;;-11.42;82.39;98505.84;1759726;80;21439;-56
2021/12/23 07:40:27;;;;;;;210.35;81.90;;;;;;;-11.28;82.69;98512.51;1745094;80;21406;-58
2021/12/23 07:42:56;;;;;;;311.90;112.43;;;;;;;-11.11;82.67;98515.86;1742109;81;20997;-57
2021/12/23 07:45:25;;;;;;;;;;;;;;;-10.95;82.80;98517.13;1735879;81;20974;-56
2021/12/23 07:47:52;;;;;;;129.60;55.25;;;;;;;-10.84;82.88;98520.50;1731924;82;20230;-58
2021/12/23 07:50:19;;;;;;;148.57;64.55;;;;;;;-10.71;82.76;98520.73;1731843;80;21045;-58
2021/12/23 07:52:46;;;;;;;251.12;90.60;;;;;;;-10.65;82.64;98520.20;1731297;81;21013;-57
2021/12/23 07:55:14;;;;;;;235.53;91.90;;;;;;;-10.52;82.63;98507.68;1759336;79;21555;-57
2021/12/23 07:57:41;;;;;;;243.42;96.82;;;;;;;-10.53;82.28;98502.92;1776174;79;21536;-58
2021/12/23 08:00:09;;;;;;;300.05;113.92;;;;;;;-10.50;81.53;98505.78;1777877;79;21473;-58
2021/12/23 08:02:35;;;;;;;229.97;92.37;;;;;;;-10.47;80.97;98500.73;1787081;79;21025;-57
2021/12/23 08:05:03;;;;;;;388.57;146.07;;;;;;;-10.39;81.05;98495.65;1757972;79;21462;-58
2021/12/23 08:07:30;;;;;;;396.02;143.10;;;;;;;-10.37;80.75;98488.47;1727815;81;21054;-58
2021/12/23 08:09:57;;;;;;;435.90;170.00;;;;;;;-10.23;81.15;98477.59;1737772;82;21044;-58
2021/12/23 08:12:23;;;;;;;417.30;167.53;;;;;;;-10.09;81.30;98484.17;1735538;82;21017;-57
2021/12/23 08:14:50;;;;;;;291.32;120.65;;;;;;;-9.86;81.64;98484.72;1732507;82;21269;-57
2021/12/23 08:17:17;;;;;;;510.43;198.43;;;;;;;-9.62;81.98;98477.72;1736194;82;21067;-56
2021/12/23 08:19:44;;;;;;;484.93;199.72;;;;;;;-9.57;81.25;98468.92;1737073;82;21017;-56
2021/12/23 08:22:11;;;;;;;442.18;172.45;;;;;;;-9.41;81.05;98473.09;1730992;82;21454;-56
2021/12/23 08:24:38;;;;;;;423.00;165.52;;;;;;;-9.18;81.52;98470.95;1729073;82;21088;-57
2021/12/23 08:27:07;;;;;;;396.82;162.47;;;;;;;-9.03;81.05;98467.38;1764346;79;21037;-57
2021/12/23 08:29:33;;;;;;;;;;;;;;;-8.84;81.25;98465.97;1729655;82;21029;-56
2021/12/23 08:32:00;;;;;;;179.27;80.85;;;;;;;-8.64;80.79;98464.88;1728602;82;20242;-57
2021/12/23 08:34:27;;;;;;;282.17;117.42;;;;;;;-8.49;80.51;98463.89;1764904;80;21642;-57
2021/12/23 08:36:54;;;;;;;243.55;105.95;;;;;;;-8.37;80.75;98447.44;1738129;82;20962;-57
2021/12/23 08:39:21;;;;;;;217.03;91.40;;;;;;;-8.19;81.27;98446.09;1729009;82;22285;-57
2021/12/23 08:41:48;;;;;;;155.67;69.58;;;;;;;-8.02;81.54;98445.25;1758767;79;21071;-57
2021/12/23 08:44:15;;;;;;;171.68;79.72;;;;;;;-7.91;81.54;98444.18;1736271;82;21138;-57
2021/12/23 08:46:42;;;;;;;189.77;81.28;;;;;;;-7.80;81.49;98446.56;1735994;82;21442;-57
2021/12/23 08:49:09;;;;;;;167.75;74.82;;;;;;;-7.68;81.63;98440.91;1765822;80;20985;-57
2021/12/23 08:51:36;;;;;;;174.93;80.45;;;;;;;-7.51;81.29;98434.44;1732104;82;21077;-57
2021/12/23 08:54:04;;;;;;;178.97;80.07;;;;;;;-7.39;81.10;98436.64;1760078;80;21049;-57
2021/12/23 08:56:31;;;;;;;158.65;73.95;;;;;;;-7.22;80.65;98432.78;1735416;82;21055;-56
2021/12/23 08:58:57;;;;;;;173.85;83.52;;;;;;;-7.10;80.58;98429.70;1724518;82;21163;-57
2021/12/23 09:01:24;;;;;;;144.75;65.45;;;;;;;-7.00;80.64;98423.52;1735257;82;21290;-57
2021/12/23 09:03:51;;;;;;;148.62;69.77;;;;;;;-6.82;80.95;98424.23;1734976;82;21469;-57
2021/12/23 09:06:18;;;;;;;134.78;63.87;;;;;;;-6.71;80.83;98419.16;1737439;80;20969;-57
2021/12/23 09:08:45;;;;;;;191.88;91.63;;;;;;;-6.57;81.01;98425.13;1730736;81;20986;-57
2021/12/23 09:11:12;;;;;;;196.87;87.70;;;;;;;-6.51;80.24;98421.00;1762589;81;20992;-57
2021/12/23 09:13:39;;;;;;;194.57;84.97;;;;;;;-6.39;80.26;98411.81;1756848;81;21378;-57
2021/12/23 09:16:05;;;;;;;216.40;104.17;;;;;;;-6.30;80.24;98406.88;1765651;79;21493;-57
2021/12/23 09:18:33;;;;;;;386.70;186.50;;;;;;;-6.25;79.62;98408.52;1765655;79;21041;-56
2021/12/23 09:21:00;;;;;;;180.97;85.42;;;;;;;-6.14;79.43;98400.30;1728957;82;21012;-56
2021/12/23 09:23:27;;;;;;;326.50;147.87;;;;;;;-5.99;79.86;98395.16;1720402;82;21657;-57
2021/12/23 09:25:54;;;;;;;373.27;163.92;;;;;;;-5.98;78.97;98391.06;1743454;80;23004;-57
2021/12/23 09:28:39;;;;;;;459.50;196.37;;;;;;;-5.80;79.04;98386.07;1756716;80;20996;-57
2021/12/23 09:33:42;;;;;;;366.20;149.90;;;;;;;-5.57;79.04;98363.73;1732882;82;21484;-57
2021/12/23 09:36:09;;;;;;;178.45;84.15;;;;;;;-5.48;78.15;98363.53;1726364;82;21036;-56
2021/12/23 09:38:37;;;;;;;141.22;61.63;;;;;;;-5.31;79.41;98352.42;1727454;82;20909;-57
2021/12/23 09:41:08;;;;;;;144.15;70.28;;;;;;;-5.16;80.21;98349.89;1764107;80;21004;-56
2021/12/23 09:43:36;;;;;;;191.00;83.85;;;;;;;-5.07;80.28;98332.19;1737507;81;21752;-57
2021/12/23 09:46:04;;;;;;;126.60;59.67;;;;;;;-4.93;80.37;98324.35;1727413;82;21450;-57
2021/12/23 09:48:32;;;;;;;115.75;55.65;;;;;;;-4.77;80.50;98317.33;1732943;82;21720;-57
2021/12/23 09:51:03;;;;;;;141.55;61.65;;;;;;;-4.64;80.47;98313.59;1753053;79;21994;-57
2021/12/23 09:53:32;;;;;;;129.95;53.35;;;;;;;-4.51;80.10;98309.05;1743258;80;21077;-57
2021/12/23 09:55:59;;;;;;;105.72;49.15;;;;;;;-4.30;80.25;98310.52;1733058;81;26960;-57
2021/12/23 09:58:26;;;;;;;138.30;65.90;;;;;;;-4.21;79.97;98302.83;1773747;80;21109;-57
2021/12/23 10:00:53;;;;;;;157.35;75.20;;;;;;;-4.10;80.18;98301.57;1741405;81;21378;-57
2021/12/23 10:03:22;;;;;;;110.03;54.65;;;;;;;-4.08;79.39;98291.15;1766824;80;20989;-57
2021/12/23 10:05:49;;;;;;;;;;;;;;;-4.23;79.00;98288.97;1747169;80;21045;-57
2021/12/23 10:08:16;;;;;;;137.07;63.33;;;;;;;-4.26;77.68;98275.59;1746558;81;20218;-57
2021/12/23 10:10:55;;;;;;;143.13;61.08;;;;;;;-4.31;78.32;98267.36;1733251;80;21040;-56
2021/12/23 10:30:21;;;;;;;179.20;79.10;;;;;;;-3.80;79.54;98239.72;1739746;81;21036;-56
2021/12/23 10:33:30;;;;;;;158.52;80.32;;;;;;;-3.86;77.82;98226.38;1749147;81;21055;-57
2021/12/23 10:38:41;;;;;;;162.43;77.55;;;;;;;-3.86;76.42;98214.47;1749502;81;21027;-56
2021/12/23 10:41:18;;;;;;;124.10;55.43;;;;;;;-3.74;76.92;98213.83;1724252;80;21091;-57
2021/12/23 10:43:48;;;;;;;174.70;83.25;;;;;;;-3.63;77.41;98196.64;1743758;79;21115;-57
2021/12/23 10:46:22;;;;;;;108.05;49.53;;;;;;;-3.55;77.91;98194.39;1774959;80;21004;-57
2021/12/23 10:49:52;;;;;;;131.43;63.10;;;;;;;-3.36;78.74;98178.41;1752200;80;21103;-56
2021/12/23 10:52:10;;;;;;;143.05;69.22;;;;;;;-3.31;78.91;98172.05;1718108;80;21405;-57
2021/12/23 11:00:35;;;;;;;128.62;62.95;;;;;;;-3.01;79.02;98148.89;1761119;80;21086;-57
2021/12/23 11:03:29;;;;;;;157.55;66.82;;;;;;;-3.09;78.96;98143.20;1754096;80;21410;-56
2021/12/23 11:11:36;;;;;;;106.12;53.60;;;;;;;-2.90;79.34;98105.97;1757300;80;21392;-56
2021/12/23 11:39:28;;;;;;;108.83;55.73;;;;;;;-2.54;77.07;98030.70;1736512;82;21214;-56
2021/12/23 11:41:50;;;;;;;115.08;48.95;;;;;;;-2.61;76.40;98012.91;1735155;80;21075;-57
2021/12/23 11:44:10;;;;;;;226.30;98.87;;;;;;;-2.61;76.93;98007.59;1729616;81;24788;-56
2021/12/23 11:46:44;;;;;;;133.55;61.70;;;;;;;-2.66;76.82;98008.68;1725259;82;21040;-57
2021/12/23 11:49:10;;;;;;;121.57;55.67;;;;;;;-2.62;76.77;97999.84;1727103;82;21658;-57
2021/12/23 11:54:11;;;;;;;109.90;53.20;;;;;;;-2.39;77.94;97983.12;1760375;80;21036;-56
2021/12/23 11:56:46;;;;;;;134.10;58.15;;;;;;;-2.24;78.40;97979.48;1751395;80;20970;-57
2021/12/23 11:59:14;;;;;;;149.18;67.40;;;;;;;-2.09;78.62;97974.33;1760685;80;21115;-57
2021/12/23 12:01:45;;;;;;;316.50;136.10;;;;;;;-2.03;78.56;97975.38;1731819;81;21016;-56
2021/12/23 12:04:25;;;;;;;282.95;130.72;;;;;;;-2.02;78.46;97971.69;1739496;82;21093;-56
2021/12/23 12:06:52;;;;;;;158.47;80.87;;;;;;;-2.11;78.20;97964.42;1761352;80;21579;-56
2021/12/23 12:09:33;;;;;;;125.70;60.12;;;;;;;-2.07;78.26;97956.86;1748031;80;21048;-57
2021/12/23 12:12:06;;;;;;;185.78;84.70;;;;;;;-1.98;77.74;97956.98;1736383;80;21115;-57
2021/12/23 12:14:41;;;;;;;189.62;88.52;;;;;;;-1.88;77.93;97952.13;1747392;81;22408;-56
2021/12/23 12:17:35;;;;;;;213.50;97.85;;;;;;;-1.94;76.43;97947.61;1748603;80;21098;-56
2021/12/23 12:20:36;;;;;;;414.52;175.18;;;;;;;-1.85;77.44;97950.37;1767040;79;21023;-56